Time;durP1;ratioP1;P1;durP2;ratioP2;P2;SDS_P1;SDS_P2;PMS_P1;PMS_P2;Temp;Humidity;BMP_temperature;BMP_pressure;BME280_temperature;BME280_humidity;BME280_pressure;Samples;Min_cycle;Max_cycle;Signal;HPM_P1;HPM_P2
2024/01/29 00:00:16;;;;;;;5.10;4.60;;;9.40;99.90;;;;;;5119822;27;20190;-74
2024/01/29 00:02:43;;;;;;;4.47;4.07;;;9.40;99.90;;;;;;5119768;27;20208;-74
2024/01/29 00:05:09;;;;;;;6.03;4.60;;;9.40;99.90;;;;;;5115644;27;20631;-73
2024/01/29 00:07:34;;;;;;;5.17;4.60;;;9.40;99.90;;;;;;5116421;28;20219;-74
2024/01/29 00:10:00;;;;;;;5.03;4.53;;;9.40;99.90;;;;;;5116532;28;20171;-73
2024/01/29 00:12:26;;;;;;;4.53;4.13;;;9.30;99.90;;;;;;5115884;28;20265;-73
2024/01/29 00:14:52;;;;;;;4.90;4.40;;;9.50;99.90;;;;;;5116459;28;20239;-75
2024/01/29 00:17:17;;;;;;;5.00;4.50;;;9.40;99.90;;;;;;5116505;28;20221;-73
2024/01/29 00:19:43;;;;;;;5.67;4.47;;;9.40;99.90;;;;;;5116294;28;20167;-73
2024/01/29 00:22:09;;;;;;;5.17;4.60;;;9.40;99.90;;;;;;5116351;28;20254;-74
2024/01/29 00:24:34;;;;;;;4.60;4.17;;;9.30;99.90;;;;;;5116201;28;20638;-74
2024/01/29 00:27:00;;;;;;;4.87;4.47;;;9.40;99.90;;;;;;5115600;28;20203;-73
2024/01/29 00:29:25;;;;;;;7.90;4.63;;;9.40;99.90;;;;;;5116319;28;20623;-73
2024/01/29 00:31:51;;;;;;;4.30;3.90;;;9.40;99.90;;;;;;5115898;28;20222;-73
2024/01/29 00:34:16;;;;;;;5.13;4.40;;;9.50;99.90;;;;;;5116046;28;20167;-74
2024/01/29 00:36:42;;;;;;;4.23;3.87;;;9.50;99.90;;;;;;5115844;28;20527;-73
2024/01/29 00:39:09;;;;;;;5.67;4.10;;;9.40;99.90;;;;;;5116059;28;20168;-73
2024/01/29 00:41:37;;;;;;;4.23;3.83;;;9.40;99.90;;;;;;5115496;28;20167;-73
2024/01/29 00:44:03;;;;;;;4.40;4.00;;;9.40;99.90;;;;;;5116129;28;20175;-74
2024/01/29 00:46:29;;;;;;;6.40;4.13;;;9.40;99.90;;;;;;5115748;28;20203;-73
2024/01/29 00:48:54;;;;;;;4.73;4.13;;;9.40;99.90;;;;;;5115969;28;20269;-74
2024/01/29 00:51:20;;;;;;;4.27;3.93;;;9.30;99.90;;;;;;5115727;28;20254;-72
2024/01/29 00:53:47;;;;;;;4.13;3.73;;;9.40;99.90;;;;;;5115717;28;20256;-73
2024/01/29 00:56:12;;;;;;;4.27;3.90;;;9.40;99.90;;;;;;5115124;28;20170;-74
2024/01/29 00:58:43;;;;;;;4.40;4.00;;;9.40;99.90;;;;;;5115561;28;20163;-73
2024/01/29 01:01:08;;;;;;;5.27;4.00;;;9.40;99.90;;;;;;5115695;28;20206;-73
2024/01/29 01:03:34;;;;;;;6.77;4.20;;;9.30;99.90;;;;;;5115587;28;20252;-73
2024/01/29 01:06:00;;;;;;;4.60;4.17;;;9.30;99.90;;;;;;5115435;28;20191;-73
2024/01/29 01:08:25;;;;;;;5.83;3.90;;;9.40;99.90;;;;;;5115145;28;20262;-73
2024/01/29 01:10:51;;;;;;;4.03;3.60;;;9.40;99.90;;;;;;5115525;28;20535;-73
2024/01/29 01:13:16;;;;;;;4.30;3.90;;;9.50;99.90;;;;;;5115354;28;20630;-74
2024/01/29 01:15:42;;;;;;;4.27;3.87;;;9.50;99.90;;;;;;5114895;28;20167;-73
2024/01/29 01:18:07;;;;;;;4.37;3.97;;;9.50;99.90;;;;;;5115068;28;20232;-74
2024/01/29 01:20:33;;;;;;;4.43;4.03;;;9.50;99.90;;;;;;5115280;28;20182;-73
2024/01/29 01:23:00;;;;;;;3.93;3.63;;;9.50;99.90;;;;;;5114660;28;20615;-73
2024/01/29 01:25:25;;;;;;;4.50;4.10;;;9.50;99.90;;;;;;5115109;28;20179;-73
2024/01/29 01:27:53;;;;;;;7.57;4.43;;;9.50;99.90;;;;;;5113686;28;20214;-73
2024/01/29 01:30:20;;;;;;;5.10;3.80;;;9.50;99.90;;;;;;5115074;28;20159;-73
2024/01/29 01:32:45;;;;;;;4.73;3.87;;;9.50;99.90;;;;;;5114797;28;20223;-73
2024/01/29 01:35:11;;;;;;;6.13;4.40;;;9.40;99.90;;;;;;5113494;28;20179;-72
2024/01/29 01:37:37;;;;;;;4.67;4.10;;;9.40;99.90;;;;;;5114343;28;20172;-72
2024/01/29 01:40:04;;;;;;;5.30;4.40;;;9.30;99.90;;;;;;5113337;28;20178;-73
2024/01/29 01:42:30;;;;;;;4.30;3.90;;;9.20;99.90;;;;;;5114682;28;20179;-73
2024/01/29 01:44:56;;;;;;;5.10;4.30;;;9.20;99.90;;;;;;5114673;28;20518;-73
2024/01/29 01:47:41;;;;;;;5.17;4.00;;;9.10;99.90;;;;;;5114588;28;20214;-73
2024/01/29 01:50:09;;;;;;;4.07;3.67;;;9.10;99.90;;;;;;5114635;28;20653;-73
2024/01/29 01:52:37;;;;;;;4.60;4.20;;;9.20;99.90;;;;;;5114104;28;20199;-72
2024/01/29 01:55:02;;;;;;;4.57;4.17;;;9.10;99.90;;;;;;5114610;28;20194;-73
2024/01/29 01:57:29;;;;;;;4.67;4.30;;;9.00;99.90;;;;;;5114274;28;20566;-73
2024/01/29 01:59:55;;;;;;;4.97;4.57;;;8.90;99.90;;;;;;5114288;27;20178;-72
2024/01/29 02:02:21;;;;;;;4.60;4.20;;;8.90;99.90;;;;;;5114470;28;20167;-73
2024/01/29 02:04:47;;;;;;;4.70;4.30;;;8.90;99.90;;;;;;5114298;28;20229;-73
2024/01/29 02:07:12;;;;;;;5.50;4.27;;;8.80;99.90;;;;;;5113924;28;20214;-73
2024/01/29 02:09:38;;;;;;;5.23;4.57;;;8.70;99.90;;;;;;5114324;28;20171;-73
2024/01/29 02:12:04;;;;;;;5.20;4.70;;;8.60;99.90;;;;;;5114240;28;20186;-74
2024/01/29 02:14:30;;;;;;;5.77;5.17;;;8.50;99.90;;;;;;5114197;28;20215;-74
2024/01/29 02:16:56;;;;;;;5.50;5.00;;;8.50;99.90;;;;;;5114050;28;20653;-73
2024/01/29 02:19:21;;;;;;;5.33;4.83;;;8.50;99.90;;;;;;5114014;28;20170;-74
2024/01/29 02:21:48;;;;;;;5.30;4.80;;;8.40;99.90;;;;;;5113696;28;20167;-74
2024/01/29 02:24:13;;;;;;;5.10;4.60;;;8.50;99.90;;;;;;5112849;28;20593;-74
2024/01/29 02:26:39;;;;;;;5.70;4.90;;;8.40;99.90;;;;;;5113541;28;20320;-74
2024/01/29 02:29:04;;;;;;;4.73;4.33;;;8.40;99.90;;;;;;5113631;28;20174;-73
2024/01/29 02:31:30;;;;;;;5.43;4.27;;;8.40;99.90;;;;;;5113886;28;20230;-73
2024/01/29 02:33:55;;;;;;;4.90;4.50;;;8.50;99.90;;;;;;5113825;28;20540;-74
2024/01/29 02:36:21;;;;;;;4.70;4.40;;;8.50;99.90;;;;;;5113560;28;20228;-76
2024/01/29 02:38:46;;;;;;;5.40;4.90;;;8.50;99.90;;;;;;5113895;28;20163;-74
2024/01/29 02:41:12;;;;;;;4.90;4.47;;;8.50;99.90;;;;;;5113769;28;20246;-74
2024/01/29 02:43:37;;;;;;;5.00;4.50;;;8.40;99.90;;;;;;5113793;28;20171;-74
2024/01/29 02:46:03;;;;;;;5.13;4.63;;;8.40;99.90;;;;;;5113549;28;20215;-74
2024/01/29 02:48:29;;;;;;;5.60;5.00;;;8.40;99.90;;;;;;5113563;28;20182;-74
2024/01/29 02:50:54;;;;;;;4.60;4.20;;;8.50;99.90;;;;;;5113360;28;20180;-73
2024/01/29 02:53:20;;;;;;;5.23;4.67;;;8.40;99.90;;;;;;5112368;28;20195;-74
2024/01/29 02:55:45;;;;;;;4.80;4.40;;;8.40;99.90;;;;;;5113726;28;20174;-74
2024/01/29 02:58:11;;;;;;;4.63;4.27;;;8.50;99.90;;;;;;5113398;28;20189;-74
2024/01/29 03:00:36;;;;;;;4.80;4.40;;;8.40;99.90;;;;;;5113618;28;20174;-73
2024/01/29 03:03:02;;;;;;;4.97;4.43;;;8.40;99.90;;;;;;5113616;28;20255;-73
2024/01/29 03:05:28;;;;;;;4.63;4.23;;;8.40;99.90;;;;;;5111745;28;20182;-74
2024/01/29 03:07:53;;;;;;;6.13;4.47;;;8.40;99.90;;;;;;5113349;28;20234;-74
2024/01/29 03:10:19;;;;;;;4.80;4.40;;;8.50;99.90;;;;;;5113486;28;20177;-74
2024/01/29 03:12:45;;;;;;;5.17;4.70;;;8.50;99.90;;;;;;5113476;28;20259;-74
2024/01/29 03:15:10;;;;;;;4.77;4.30;;;8.50;99.90;;;;;;5113452;28;20167;-74
2024/01/29 03:17:36;;;;;;;4.80;4.40;;;8.40;99.90;;;;;;5113256;28;20170;-74
2024/01/29 03:20:02;;;;;;;5.13;4.53;;;8.40;99.90;;;;;;5113107;28;20167;-74
2024/01/29 03:22:28;;;;;;;5.20;4.70;;;8.40;99.90;;;;;;5113663;28;20201;-74
2024/01/29 03:24:53;;;;;;;4.50;4.10;;;8.40;99.90;;;;;;5113496;28;20198;-73
2024/01/29 03:27:19;;;;;;;5.07;4.67;;;8.40;99.90;;;;;;5113316;28;20563;-75
2024/01/29 03:29:44;;;;;;;4.60;4.20;;;8.40;99.90;;;;;;5113268;28;20175;-75
2024/01/29 03:32:10;;;;;;;5.30;4.43;;;8.40;99.90;;;;;;5113090;28;20544;-74
2024/01/29 03:34:40;;;;;;;5.20;4.23;;;8.40;99.90;;;;;;5112792;28;20175;-74
2024/01/29 03:37:06;;;;;;;5.07;4.57;;;8.30;99.90;;;;;;5113193;28;20178;-73
2024/01/29 03:39:31;;;;;;;4.90;4.40;;;8.40;99.90;;;;;;5115939;28;20160;-74
2024/01/29 03:41:57;;;;;;;5.07;4.60;;;8.50;99.90;;;;;;5116989;28;20174;-74
2024/01/29 03:44:22;;;;;;;5.10;4.60;;;8.50;99.90;;;;;;5117044;28;20180;-73
2024/01/29 03:46:48;;;;;;;5.57;4.73;;;8.50;99.90;;;;;;5116694;28;20214;-74
2024/01/29 03:49:13;;;;;;;5.40;4.60;;;8.40;99.90;;;;;;5116634;28;20163;-73
2024/01/29 03:51:39;;;;;;;6.23;5.67;;;8.40;99.90;;;;;;5116727;28;20654;-74
2024/01/29 03:54:05;;;;;;;5.00;4.60;;;8.40;99.90;;;;;;5116851;28;20698;-74
2024/01/29 03:56:30;;;;;;;5.20;4.70;;;8.30;99.90;;;;;;5115302;28;20167;-74
2024/01/29 03:58:56;;;;;;;5.50;4.90;;;8.20;99.90;;;;;;5116756;28;20164;-74
2024/01/29 04:01:27;;;;;;;6.10;5.23;;;8.30;99.90;;;;;;5116565;28;20250;-74
2024/01/29 04:03:53;;;;;;;5.40;4.90;;;8.30;99.90;;;;;;5116489;28;20167;-74
2024/01/29 04:06:19;;;;;;;5.23;4.80;;;8.30;99.90;;;;;;5116384;28;20206;-74
2024/01/29 04:08:44;;;;;;;5.00;4.50;;;8.30;99.90;;;;;;5116616;28;20171;-73
2024/01/29 04:11:10;;;;;;;9.17;5.10;;;8.30;99.90;;;;;;5116457;28;20193;-74
2024/01/29 04:13:35;;;;;;;5.87;5.27;;;8.40;99.90;;;;;;5116350;28;20168;-74
2024/01/29 04:16:01;;;;;;;4.87;4.47;;;8.30;99.90;;;;;;5116287;28;20202;-74
2024/01/29 04:18:26;;;;;;;5.27;4.73;;;8.30;99.90;;;;;;5115873;28;20674;-73
2024/01/29 04:20:52;;;;;;;5.70;5.20;;;8.30;99.90;;;;;;5116093;28;20212;-74
2024/01/29 04:23:18;;;;;;;5.20;4.70;;;8.30;99.90;;;;;;5114952;28;20630;-74
2024/01/29 04:25:44;;;;;;;7.97;4.97;;;8.30;99.90;;;;;;5116245;28;20171;-74
2024/01/29 04:28:09;;;;;;;6.87;5.60;;;8.30;99.90;;;;;;5116048;28;20705;-73
2024/01/29 04:30:35;;;;;;;7.37;5.07;;;8.30;99.90;;;;;;5115626;28;20175;-73
2024/01/29 04:33:00;;;;;;;8.10;5.43;;;8.30;99.90;;;;;;5115597;28;20175;-73
2024/01/29 04:35:26;;;;;;;6.53;5.80;;;8.40;99.90;;;;;;5114497;28;20183;-74
2024/01/29 04:37:52;;;;;;;6.23;5.63;;;8.40;99.90;;;;;;5115842;28;20244;-74
2024/01/29 04:40:17;;;;;;;5.80;5.17;;;8.40;99.90;;;;;;5115792;28;20523;-73
2024/01/29 04:42:43;;;;;;;6.17;5.57;;;8.40;99.90;;;;;;5115783;28;20175;-74
2024/01/29 04:45:08;;;;;;;6.40;5.80;;;8.40;99.90;;;;;;5115870;28;20262;-73
2024/01/29 04:47:34;;;;;;;6.13;5.33;;;8.40;99.90;;;;;;5114992;28;20207;-73
2024/01/29 04:50:00;;;;;;;7.00;5.50;;;8.50;99.90;;;;;;5114922;28;20207;-73
2024/01/29 04:52:25;;;;;;;6.30;5.70;;;8.50;99.90;;;;;;5115099;28;20646;-73
2024/01/29 04:54:51;;;;;;;6.37;5.70;;;8.50;99.90;;;;;;5115107;28;20171;-73
2024/01/29 04:57:17;;;;;;;5.73;5.23;;;8.50;99.90;;;;;;5113618;28;20186;-74
2024/01/29 04:59:42;;;;;;;6.23;5.63;;;8.40;99.90;;;;;;5113814;28;20171;-74
2024/01/29 05:02:08;;;;;;;5.77;5.27;;;8.50;99.90;;;;;;5115066;28;20258;-74
2024/01/29 05:04:34;;;;;;;6.37;5.70;;;8.50;99.90;;;;;;5115403;28;20174;-74
2024/01/29 05:07:00;;;;;;;6.20;5.63;;;8.50;99.90;;;;;;5115035;28;20233;-74
2024/01/29 05:09:26;;;;;;;9.27;5.70;;;8.50;99.90;;;;;;5114971;28;20225;-74
2024/01/29 05:11:51;;;;;;;8.50;6.10;;;8.50;99.90;;;;;;5114526;28;20172;-74
2024/01/29 05:14:17;;;;;;;7.80;5.80;;;8.50;99.90;;;;;;5114662;28;20190;-74
2024/01/29 05:16:44;;;;;;;6.77;6.03;;;8.50;99.90;;;;;;5114378;28;20167;-74
2024/01/29 05:19:10;;;;;;;7.53;5.83;;;8.60;99.90;;;;;;5113513;28;20171;-76
2024/01/29 05:21:35;;;;;;;5.90;5.30;;;8.60;99.90;;;;;;5114697;28;20187;-75
2024/01/29 05:24:01;;;;;;;6.20;5.50;;;8.50;99.90;;;;;;5114604;28;20194;-74
2024/01/29 05:26:26;;;;;;;7.60;6.10;;;8.50;99.90;;;;;;5114774;28;20187;-74
2024/01/29 05:28:52;;;;;;;7.93;6.20;;;8.40;99.90;;;;;;5114563;28;20652;-74
2024/01/29 05:31:17;;;;;;;6.67;5.70;;;8.40;99.90;;;;;;5112255;28;20758;-74
2024/01/29 05:33:43;;;;;;;9.70;6.03;;;8.50;99.90;;;;;;5114270;28;20573;-73
2024/01/29 05:36:08;;;;;;;7.70;5.97;;;8.40;99.90;;;;;;5114302;28;20491;-73
2024/01/29 05:38:35;;;;;;;6.63;5.83;;;8.40;99.90;;;;;;5114844;28;20623;-74
2024/01/29 05:41:01;;;;;;;7.83;6.07;;;8.40;99.90;;;;;;5114242;28;20175;-74
2024/01/29 05:43:26;;;;;;;8.77;6.00;;;8.40;99.90;;;;;;5113018;28;20259;-73
2024/01/29 05:45:52;;;;;;;8.67;5.80;;;8.40;99.90;;;;;;5112565;28;20276;-73
2024/01/29 05:48:18;;;;;;;7.70;5.97;;;8.30;99.90;;;;;;5112814;28;20175;-74
2024/01/29 05:50:44;;;;;;;6.37;5.70;;;8.20;99.90;;;;;;5113716;28;20160;-75
2024/01/29 05:53:10;;;;;;;5.83;5.33;;;8.20;99.90;;;;;;5113739;28;20187;-74
2024/01/29 05:55:36;;;;;;;6.33;5.70;;;8.20;99.90;;;;;;5114388;28;20163;-74
2024/01/29 05:58:01;;;;;;;6.37;5.50;;;8.20;99.90;;;;;;5113336;28;20228;-73
2024/01/29 06:00:27;;;;;;;7.50;5.67;;;8.20;99.90;;;;;;5111867;28;20160;-74
2024/01/29 06:02:52;;;;;;;6.53;5.87;;;8.10;99.90;;;;;;5112647;28;20210;-74
2024/01/29 06:05:18;;;;;;;9.13;6.20;;;8.20;99.90;;;;;;5114046;28;20175;-73
2024/01/29 06:07:43;;;;;;;6.47;5.77;;;8.20;99.90;;;;;;5113375;28;20275;-74
2024/01/29 06:10:12;;;;;;;7.57;6.23;;;8.10;99.90;;;;;;5113117;28;20175;-74
2024/01/29 06:12:37;;;;;;;8.50;6.03;;;8.10;99.90;;;;;;5113163;28;20175;-73
2024/01/29 06:15:04;;;;;;;9.10;6.00;;;8.00;99.90;;;;;;5113497;28;20751;-73
2024/01/29 06:17:30;;;;;;;8.47;6.47;;;8.00;99.90;;;;;;5113088;28;20167;-73
2024/01/29 06:19:55;;;;;;;7.03;6.33;;;8.00;99.90;;;;;;5113119;28;20649;-74
2024/01/29 06:22:21;;;;;;;9.83;6.40;;;8.00;99.90;;;;;;5113707;28;20182;-73
2024/01/29 06:24:46;;;;;;;8.07;6.60;;;8.00;99.90;;;;;;5113268;28;20304;-73
2024/01/29 06:27:12;;;;;;;12.70;6.77;;;8.00;99.90;;;;;;5112994;28;20207;-73
2024/01/29 06:29:38;;;;;;;9.80;6.90;;;8.10;99.90;;;;;;5112964;28;20179;-73
2024/01/29 06:32:03;;;;;;;7.80;6.70;;;8.10;99.90;;;;;;5112738;28;20229;-74
2024/01/29 06:34:31;;;;;;;9.10;6.97;;;8.00;99.90;;;;;;5112840;28;20247;-73
2024/01/29 06:36:57;;;;;;;9.03;6.90;;;8.00;99.90;;;;;;5112974;28;20179;-73
2024/01/29 06:39:24;;;;;;;15.37;6.80;;;7.90;99.90;;;;;;5112422;28;20254;-74
2024/01/29 06:41:50;;;;;;;13.70;7.53;;;7.80;99.90;;;;;;5112728;28;20189;-73
2024/01/29 06:44:16;;;;;;;8.63;6.33;;;7.80;99.90;;;;;;5112701;28;20171;-74
2024/01/29 06:46:41;;;;;;;11.53;7.43;;;7.70;99.90;;;;;;5112524;28;20229;-74
2024/01/29 06:49:07;;;;;;;9.13;7.10;;;7.70;99.90;;;;;;5112443;28;20264;-73
2024/01/29 06:51:32;;;;;;;9.00;7.10;;;7.70;99.90;;;;;;5112963;28;20202;-73
2024/01/29 06:54:00;;;;;;;10.63;7.43;;;7.70;99.90;;;;;;5112303;28;20171;-73
2024/01/29 06:56:26;;;;;;;8.40;7.27;;;7.70;99.90;;;;;;5112050;28;20221;-72
2024/01/29 06:58:52;;;;;;;13.67;8.00;;;7.60;99.90;;;;;;5112441;28;20251;-74
2024/01/29 07:01:20;;;;;;;11.50;7.10;;;7.50;99.90;;;;;;5110910;28;20262;-75
2024/01/29 07:03:45;;;;;;;7.80;7.00;;;7.50;99.90;;;;;;5111914;28;20175;-74
2024/01/29 07:06:11;;;;;;;17.90;8.37;;;7.50;99.90;;;;;;5111012;28;20247;-73
2024/01/29 07:08:37;;;;;;;11.90;7.60;;;7.60;99.90;;;;;;5112082;28;20178;-74
2024/01/29 07:11:02;;;;;;;10.83;7.80;;;7.50;99.90;;;;;;5110687;28;20195;-74
2024/01/29 07:13:28;;;;;;;12.97;7.13;;;7.50;99.90;;;;;;5113631;28;20167;-74
2024/01/29 07:15:54;;;;;;;8.47;7.10;;;7.50;99.90;;;;;;5117140;28;20175;-75
2024/01/29 07:18:19;;;;;;;11.43;7.13;;;7.50;99.90;;;;;;5116485;28;20159;-74
2024/01/29 07:20:45;;;;;;;10.53;7.73;;;7.50;99.90;;;;;;5116723;28;20179;-73
2024/01/29 07:23:11;;;;;;;11.90;8.03;;;7.50;99.90;;;;;;5114923;28;20194;-74
2024/01/29 07:25:40;;;;;;;11.13;7.40;;;7.50;99.90;;;;;;5115779;28;20171;-74
2024/01/29 07:28:06;;;;;;;11.57;7.50;;;7.50;99.90;;;;;;5116670;28;20214;-74
2024/01/29 07:30:32;;;;;;;7.80;6.97;;;7.50;99.90;;;;;;5114384;28;20234;-74
2024/01/29 07:32:58;;;;;;;15.37;9.00;;;7.70;99.90;;;;;;5116471;28;20269;-73
2024/01/29 07:35:24;;;;;;;9.50;7.47;;;7.80;99.90;;;;;;5115875;28;20170;-74
2024/01/29 07:37:50;;;;;;;11.40;7.33;;;7.80;99.90;;;;;;5115360;28;20243;-74
2024/01/29 07:40:17;;;;;;;10.13;7.33;;;7.90;99.90;;;;;;5115947;28;20187;-74
2024/01/29 07:42:43;;;;;;;9.23;7.40;;;7.90;99.90;;;;;;5116572;28;20660;-73
2024/01/29 07:45:08;;;;;;;11.67;7.37;;;8.00;99.90;;;;;;5116086;28;20179;-73
2024/01/29 07:47:34;;;;;;;14.83;7.57;;;8.20;99.90;;;;;;5116225;28;20674;-74
2024/01/29 07:50:01;;;;;;;16.97;8.23;;;8.30;99.90;;;;;;5114474;28;20181;-73
2024/01/29 07:52:27;;;;;;;14.17;7.57;;;8.40;99.90;;;;;;5115967;28;20224;-73
2024/01/29 07:54:53;;;;;;;8.87;7.40;;;8.50;99.90;;;;;;5115419;28;20167;-74
2024/01/29 07:57:18;;;;;;;7.83;6.83;;;8.60;99.90;;;;;;5115559;28;20194;-74
2024/01/29 07:59:45;;;;;;;10.23;7.40;;;8.60;99.90;;;;;;5115693;28;20618;-74
2024/01/29 08:02:11;;;;;;;14.67;7.93;;;8.70;99.90;;;;;;5116059;28;20172;-72
2024/01/29 08:04:37;;;;;;;11.57;7.47;;;9.00;99.90;;;;;;5109871;28;20167;-73
2024/01/29 08:07:03;;;;;;;11.23;7.87;;;9.20;99.90;;;;;;5078925;28;20698;-70
2024/01/29 08:09:28;;;;;;;8.83;7.57;;;9.50;99.90;;;;;;5082022;28;20168;-74
2024/01/29 08:11:54;;;;;;;10.47;7.13;;;9.80;99.90;;;;;;5072724;28;20590;-73
2024/01/29 08:14:21;;;;;;;12.50;8.20;;;10.00;99.90;;;;;;5083892;28;20193;-73
2024/01/29 08:16:46;;;;;;;9.83;8.20;;;10.10;99.90;;;;;;5115287;28;20254;-72
2024/01/29 08:19:12;;;;;;;12.67;7.73;;;10.50;99.90;;;;;;5112890;28;20266;-74
2024/01/29 08:21:38;;;;;;;12.97;7.67;;;10.70;99.90;;;;;;5094688;28;20628;-72
2024/01/29 08:24:04;;;;;;;9.47;7.20;;;10.90;99.90;;;;;;5094514;28;20172;-75
2024/01/29 08:26:30;;;;;;;12.37;9.13;;;11.30;99.90;;;;;;5092419;28;20204;-74
2024/01/29 08:28:56;;;;;;;10.87;7.80;;;11.80;99.90;;;;;;5095405;28;20168;-74
2024/01/29 08:31:22;;;;;;;10.67;7.90;;;12.00;99.90;;;;;;5094517;28;20216;-74
2024/01/29 08:33:47;;;;;;;14.47;7.87;;;11.80;99.90;;;;;;5094378;28;20171;-73
2024/01/29 08:36:15;;;;;;;14.67;7.73;;;12.00;99.90;;;;;;5093432;28;20176;-74
2024/01/29 08:38:41;;;;;;;10.17;7.73;;;12.20;99.90;;;;;;5094308;28;20160;-73
2024/01/29 08:41:07;;;;;;;11.23;8.20;;;12.20;99.90;;;;;;5081648;28;20185;-73
2024/01/29 08:43:33;;;;;;;11.97;9.30;;;12.50;99.90;;;;;;5079506;28;20187;-74
2024/01/29 08:45:58;;;;;;;14.43;8.90;;;12.70;99.90;;;;;;5094200;28;20183;-73
2024/01/29 08:48:24;;;;;;;16.07;9.57;;;12.70;99.90;;;;;;5074859;28;20228;-74
2024/01/29 08:50:50;;;;;;;11.67;9.43;;;12.70;99.90;;;;;;5074124;28;20516;-75
2024/01/29 08:53:15;;;;;;;16.23;9.93;;;12.80;99.90;;;;;;5072791;28;20277;-73
2024/01/29 08:55:41;;;;;;;12.93;8.43;;;12.90;99.90;;;;;;5079086;28;20211;-72
2024/01/29 08:58:06;;;;;;;13.60;8.37;;;13.10;99.90;;;;;;5073860;28;20529;-72
2024/01/29 09:00:32;;;;;;;12.93;8.40;;;13.00;99.90;;;;;;5071418;28;20247;-73
2024/01/29 09:02:59;;;;;;;13.87;8.50;;;13.20;99.90;;;;;;5072764;28;20177;-73
2024/01/29 09:05:24;;;;;;;15.83;8.57;;;13.20;99.90;;;;;;5074069;28;20181;-72
2024/01/29 09:07:50;;;;;;;13.67;8.23;;;13.30;99.90;;;;;;5072392;28;20567;-73
2024/01/29 09:10:16;;;;;;;17.43;10.43;;;13.50;99.90;;;;;;5074329;28;20172;-74
2024/01/29 09:12:43;;;;;;;20.83;9.20;;;13.60;99.90;;;;;;5073593;28;20256;-73
2024/01/29 09:15:09;;;;;;;16.33;7.87;;;14.10;99.90;;;;;;5074205;28;20253;-73
2024/01/29 09:17:35;;;;;;;12.53;8.20;;;14.50;99.60;;;;;;5073656;28;20203;-73
2024/01/29 09:20:01;;;;;;;11.53;9.33;;;14.50;99.90;;;;;;5075171;28;20631;-73
2024/01/29 09:22:27;;;;;;;10.90;7.70;;;14.50;99.40;;;;;;5075086;28;20194;-72
2024/01/29 09:24:52;;;;;;;11.53;7.47;;;13.90;99.90;;;;;;5082902;28;20288;-71
2024/01/29 09:27:18;;;;;;;8.37;6.60;;;13.90;99.90;;;;;;5081612;28;20219;-72
2024/01/29 09:29:44;;;;;;;12.80;6.77;;;14.10;99.90;;;;;;5084608;28;20191;-75
2024/01/29 09:32:10;;;;;;;10.43;7.43;;;14.50;99.90;;;;;;5088674;28;20235;-75
2024/01/29 09:34:35;;;;;;;9.07;7.40;;;15.30;99.30;;;;;;5089979;28;20191;-75
2024/01/29 09:37:01;;;;;;;9.73;7.00;;;15.60;98.40;;;;;;5092438;28;20623;-74
2024/01/29 09:39:27;;;;;;;8.13;6.85;;;15.40;98.00;;;;;;5091205;28;20263;-74
2024/01/29 09:42:00;;;;;;;8.75;6.63;;;16.00;97.70;;;;;;5093638;28;20172;-75
2024/01/29 09:44:28;;;;;;;9.48;6.38;;;16.40;96.70;;;;;;5093122;28;20217;-75
2024/01/29 09:46:54;;;;;;;9.85;6.68;;;16.90;95.60;;;;;;5092238;28;20212;-75
2024/01/29 09:49:22;;;;;;;13.85;7.38;;;17.40;94.60;;;;;;5092949;28;20168;-76
2024/01/29 09:51:48;;;;;;;12.23;7.00;;;17.20;94.40;;;;;;5093051;28;20221;-75
2024/01/29 09:54:14;;;;;;;12.05;7.10;;;17.20;94.30;;;;;;5093123;28;20167;-75
2024/01/29 09:56:40;;;;;;;15.63;7.43;;;16.90;95.00;;;;;;5093669;28;20178;-76
2024/01/29 09:59:05;;;;;;;13.30;8.00;;;16.80;95.00;;;;;;5093236;28;20172;-76
2024/01/29 10:01:32;;;;;;;7.50;6.90;;;16.90;95.20;;;;;;5093382;28;20251;-76
2024/01/29 10:03:58;;;;;;;10.27;7.60;;;17.30;94.40;;;;;;5093187;28;20168;-75
2024/01/29 10:06:23;;;;;;;8.23;7.43;;;17.40;94.60;;;;;;5092845;28;20199;-75
2024/01/29 10:08:49;;;;;;;9.15;7.47;;;17.60;94.00;;;;;;5092938;28;20581;-77
2024/01/29 10:11:16;;;;;;;8.63;7.55;;;17.80;94.30;;;;;;5093266;28;20186;-75
2024/01/29 10:13:42;;;;;;;12.43;7.72;;;18.10;93.60;;;;;;5082464;28;20843;-72
2024/01/29 10:16:08;;;;;;;11.85;7.40;;;17.40;94.60;;;;;;5083855;28;20262;-78
2024/01/29 10:18:33;;;;;;;11.40;8.63;;;16.90;95.80;;;;;;5076441;28;20264;-75
2024/01/29 10:21:08;;;;;;;13.82;8.45;;;17.30;95.60;;;;;;5074377;28;20188;-79
2024/01/29 10:23:33;;;;;;;9.27;7.72;;;18.00;94.90;;;;;;5072098;28;20237;-72
2024/01/29 10:26:00;;;;;;;10.13;7.75;;;18.60;93.90;;;;;;5071214;28;20157;-72
2024/01/29 10:28:27;;;;;;;8.93;7.65;;;18.00;94.60;;;;;;5072487;28;20184;-71
2024/01/29 10:30:56;;;;;;;14.07;8.40;;;18.00;94.30;;;;;;5071008;28;20283;-73
2024/01/29 10:33:22;;;;;;;12.48;8.40;;;18.00;94.70;;;;;;5072161;28;20650;-72
2024/01/29 10:35:49;;;;;;;11.57;8.40;;;17.80;94.60;;;;;;5071823;28;20176;-70
2024/01/29 10:38:20;;;;;;;10.40;8.05;;;17.40;95.40;;;;;;5072635;28;20176;-71
2024/01/29 10:40:46;;;;;;;12.07;8.98;;;16.80;96.40;;;;;;5072675;28;20207;-70
2024/01/29 10:43:20;;;;;;;12.48;8.50;;;16.40;97.80;;;;;;5072517;28;20520;-72
2024/01/29 10:45:50;;;;;;;27.33;9.63;;;16.10;98.30;;;;;;5072688;28;20262;-71
2024/01/29 10:48:20;;;;;;;63.03;12.10;;;16.10;99.30;;;;;;5071616;28;20213;-71
2024/01/29 10:50:48;;;;;;;29.02;9.02;;;16.10;99.50;;;;;;5072509;28;20249;-71
2024/01/29 10:53:16;;;;;;;15.30;8.35;;;16.30;98.70;;;;;;5072271;28;20636;-72
2024/01/29 10:55:43;;;;;;;13.35;8.65;;;16.20;99.10;;;;;;5082953;28;20202;-71
2024/01/29 10:58:12;;;;;;;15.73;9.07;;;16.30;99.40;;;;;;5092972;28;20213;-71
2024/01/29 11:00:40;;;;;;;12.80;9.23;;;16.30;99.00;;;;;;5092785;28;20168;-71
2024/01/29 11:03:08;;;;;;;11.60;8.88;;;16.70;98.90;;;;;;5092546;28;20167;-72
2024/01/29 11:05:35;;;;;;;9.82;8.63;;;17.30;98.20;;;;;;5092836;28;20665;-72
2024/01/29 11:08:03;;;;;;;10.35;8.73;;;16.80;98.00;;;;;;5092152;28;20249;-74
2024/01/29 11:10:32;;;;;;;11.05;8.43;;;16.80;98.60;;;;;;5090753;28;20572;-72
2024/01/29 11:12:59;;;;;;;12.88;8.45;;;17.30;97.90;;;;;;5092121;28;20646;-73
2024/01/29 11:15:25;;;;;;;12.65;8.45;;;17.30;97.50;;;;;;5090940;28;20168;-72
2024/01/29 11:17:51;;;;;;;9.88;8.25;;;16.90;98.40;;;;;;5091844;28;20646;-72
2024/01/29 11:20:20;;;;;;;9.75;8.05;;;17.10;98.00;;;;;;5092184;28;20172;-71
2024/01/29 11:22:56;;;;;;;10.35;8.90;;;16.60;98.90;;;;;;5090876;28;20210;-73
2024/01/29 11:25:22;;;;;;;9.63;8.35;;;16.80;98.90;;;;;;5091729;28;20228;-72
2024/01/29 11:27:50;;;;;;;9.90;8.70;;;16.90;98.60;;;;;;5092147;28;20381;-73
2024/01/29 11:30:19;;;;;;;14.85;8.38;;;17.10;98.60;;;;;;5092422;28;20203;-73
2024/01/29 11:32:47;;;;;;;11.27;8.48;;;17.50;97.80;;;;;;5090942;28;20208;-73
2024/01/29 11:35:16;;;;;;;12.75;8.77;;;17.70;96.90;;;;;;5091985;28;20168;-73
2024/01/29 11:37:42;;;;;;;11.50;8.30;;;17.60;97.00;;;;;;5084169;28;20185;-75
2024/01/29 11:40:32;;;;;;;9.48;8.40;;;17.70;97.50;;;;;;5079930;28;20172;-76
2024/01/29 11:42:57;;;;;;;11.40;8.20;;;17.50;97.50;;;;;;5075121;28;20248;-78
2024/01/29 11:45:24;;;;;;;9.13;8.23;;;17.80;97.20;;;;;;5071730;28;20632;-76
2024/01/29 11:47:50;;;;;;;9.80;8.02;;;18.20;97.10;;;;;;5071632;28;20204;-73
2024/01/29 11:50:16;;;;;;;11.90;7.50;;;18.20;96.60;;;;;;5070556;28;20309;-76
2024/01/29 11:52:41;;;;;;;13.77;8.35;;;18.10;96.90;;;;;;5071451;28;20184;-77
2024/01/29 11:55:07;;;;;;;9.57;8.00;;;17.60;97.30;;;;;;5071206;28;20173;-77
2024/01/29 11:57:32;;;;;;;10.60;8.13;;;17.70;97.20;;;;;;5071547;28;20173;-79
2024/01/29 12:00:01;;;;;;;11.48;8.30;;;17.30;98.20;;;;;;5078675;28;20698;-74
2024/01/29 12:02:27;;;;;;;9.13;7.63;;;17.70;98.30;;;;;;5104727;28;20176;-74
2024/01/29 12:04:53;;;;;;;11.90;8.77;;;18.20;97.30;;;;;;5095590;28;20176;-78
2024/01/29 12:07:19;;;;;;;11.45;7.90;;;18.60;96.70;;;;;;5095197;28;20282;-78
2024/01/29 12:09:44;;;;;;;15.02;8.35;;;18.80;96.10;;;;;;5095046;28;20164;-76
2024/01/29 12:12:11;;;;;;;10.13;7.95;;;19.10;95.70;;;;;;5093521;28;20176;-76
2024/01/29 12:14:36;;;;;;;12.30;8.00;;;19.10;95.20;;;;;;5094272;28;20647;-77
2024/01/29 12:17:05;;;;;;;12.20;7.95;;;18.70;95.60;;;;;;5093449;28;20183;-78
2024/01/29 12:19:30;;;;;;;12.35;7.80;;;18.60;96.10;;;;;;5095095;28;20255;-79
2024/01/29 12:21:56;;;;;;;9.90;7.20;;;18.40;96.20;;;;;;5095433;28;20255;-75
2024/01/29 12:24:22;;;;;;;9.68;7.25;;;17.70;96.90;;;;;;5094132;28;20176;-75
2024/01/29 12:26:47;;;;;;;12.13;7.85;;;17.00;98.70;;;;;;5094980;28;20633;-80
2024/01/29 12:29:14;;;;;;;11.55;7.30;;;16.60;99.50;;;;;;5095094;28;20648;-74
2024/01/29 12:31:39;;;;;;;12.50;7.70;;;16.40;99.90;;;;;;5092784;28;20242;-76
2024/01/29 12:34:08;;;;;;;13.43;7.30;;;16.30;99.90;;;;;;5093377;28;20643;-76
2024/01/29 12:36:34;;;;;;;9.73;7.97;;;16.10;99.90;;;;;;5095162;28;20224;-75
2024/01/29 12:39:00;;;;;;;12.13;7.25;;;16.20;99.90;;;;;;5113857;28;20167;-76
2024/01/29 12:41:33;;;;;;;11.15;6.75;;;16.20;99.90;;;;;;5114865;28;20172;-75
2024/01/29 12:44:09;;;;;;;8.18;7.28;;;16.50;99.90;;;;;;5114633;28;20178;-74